Time;durP1;ratioP1;P1;durP2;ratioP2;P2;SDS_P1;SDS_P2;PMS_P1;PMS_P2;Temp;Humidity;BMP_temperature;BMP_pressure;BME280_temperature;BME280_humidity;BME280_pressure;Samples;Min_cycle;Max_cycle;Signal;HPM_P1;HPM_P2
2021/07/30 00:00:39;;;;;;;7.40;5.90;;;;;;;18.72;69.36;99946.25;92946;1209;86617;-61
2021/07/30 00:03:01;;;;;;;8.00;6.10;;;;;;;18.75;69.25;99944.91;92927;1211;75122;-61
2021/07/30 00:05:11;;;;;;;8.10;6.40;;;;;;;18.74;69.33;99944.08;92941;1211;82871;-62
2021/07/30 00:07:19;;;;;;;7.00;6.30;;;;;;;18.76;69.18;99941.91;92963;1211;67218;-62
2021/07/30 00:09:27;;;;;;;8.50;6.40;;;;;;;18.76;69.05;99950.13;92912;1217;69265;-60
2021/07/30 00:11:38;;;;;;;9.50;7.10;;;;;;;18.73;69.12;99942.41;92928;1211;86954;-61
2021/07/30 00:13:46;;;;;;;8.20;6.00;;;;;;;18.71;69.13;99944.59;92945;1211;75653;-60
2021/07/30 00:15:55;;;;;;;9.70;6.00;;;;;;;18.71;69.22;99943.75;92904;1211;83004;-62
2021/07/30 00:18:04;;;;;;;10.40;6.00;;;;;;;18.70;69.25;99940.21;92922;1211;65630;-61
2021/07/30 00:20:13;;;;;;;8.80;6.10;;;;;;;18.72;69.06;99939.95;92949;1211;69131;-62
2021/07/30 00:22:21;;;;;;;7.10;6.40;;;;;;;18.75;69.19;99933.97;92937;1211;86214;-65
2021/07/30 00:24:29;;;;;;;7.30;5.60;;;;;;;18.72;68.95;99934.47;92956;1211;75539;-62
2021/07/30 00:26:37;;;;;;;9.50;6.50;;;;;;;18.71;68.82;99935.55;92905;1209;82107;-59
2021/07/30 00:28:48;;;;;;;6.90;6.10;;;;;;;18.72;69.01;99932.56;92921;1211;67626;-61
2021/07/30 00:30:56;;;;;;;6.60;5.70;;;;;;;18.68;68.92;99928.67;92927;1211;69361;-61
2021/07/30 00:33:05;;;;;;;6.50;5.40;;;;;;;18.73;68.88;99930.66;92917;1211;87912;-62
2021/07/30 00:35:13;;;;;;;7.50;5.90;;;;;;;18.71;68.89;99933.64;92916;1216;74944;-60
2021/07/30 00:37:21;;;;;;;9.00;5.80;;;;;;;18.73;69.02;99933.41;92966;1205;80919;-61
2021/07/30 00:39:29;;;;;;;10.20;5.80;;;;;;;18.75;69.06;99931.23;92902;1218;67110;-61
2021/07/30 00:41:39;;;;;;;7.50;5.80;;;;;;;18.74;69.05;99935.04;92998;1205;68754;-62
2021/07/30 00:43:47;;;;;;;6.40;5.80;;;;;;;18.74;69.10;99932.30;93019;1211;87440;-61
2021/07/30 00:46:00;;;;;;;6.80;5.60;;;;;;;18.73;68.87;99938.88;92950;1217;77438;-59
2021/07/30 00:48:21;;;;;;;7.60;6.20;;;;;;;18.74;68.72;99938.61;92993;1212;82290;-61
2021/07/30 00:50:35;;;;;;;9.90;6.30;;;;;;;18.77;68.60;99932.63;92995;1211;66559;-61
2021/07/30 00:52:47;;;;;;;6.70;5.60;;;;;;;18.80;68.87;99925.82;92960;1211;68948;-62
2021/07/30 00:55:00;;;;;;;6.50;5.60;;;;;;;18.80;68.76;99932.13;92931;1211;86014;-62
2021/07/30 00:57:13;;;;;;;6.60;5.60;;;;;;;18.81;68.72;99924.75;93002;1211;75605;-62
2021/07/30 00:59:23;;;;;;;7.00;5.30;;;;;;;18.80;68.51;99931.29;92967;1211;79768;-61
2021/07/30 01:01:47;;;;;;;9.50;6.10;;;;;;;18.77;68.42;99938.10;92999;1204;65761;-66
2021/07/30 01:03:57;;;;;;;6.30;5.50;;;;;;;18.78;68.36;99927.98;92935;1211;68940;-61
2021/07/30 01:06:11;;;;;;;10.10;6.10;;;;;;;18.75;68.47;99926.59;92989;1211;86378;-64
2021/07/30 01:08:29;;;;;;;7.10;5.00;;;;;;;18.76;68.54;99927.42;92942;1212;75013;-62
2021/07/30 01:10:51;;;;;;;7.40;5.70;;;;;;;18.75;68.69;99928.50;92930;1211;82768;-59
2021/07/30 01:13:04;;;;;;;6.10;5.40;;;;;;;18.76;68.58;99927.42;93023;1211;65769;-61
2021/07/30 01:15:18;;;;;;;7.10;5.60;;;;;;;18.78;68.35;99934.30;93002;1211;67774;-58
2021/07/30 01:17:32;;;;;;;7.20;5.50;;;;;;;18.78;68.39;99927.98;92999;1211;86911;-60
2021/07/30 01:19:43;;;;;;;6.70;5.90;;;;;;;18.76;68.32;99914.55;93020;1211;74910;-59
2021/07/30 01:21:55;;;;;;;7.80;6.10;;;;;;;18.77;68.22;99921.69;92906;1216;80159;-61
2021/07/30 01:24:09;;;;;;;9.80;5.90;;;;;;;18.78;68.27;99917.05;93022;1211;67309;-68
2021/07/30 01:26:20;;;;;;;9.30;5.90;;;;;;;18.75;68.32;99907.44;92948;1211;69541;-61
2021/07/30 01:28:37;;;;;;;10.40;6.50;;;;;;;18.76;68.67;99914.55;93020;1211;86731;-62
2021/07/30 01:30:52;;;;;;;9.70;5.80;;;;;;;18.75;68.71;99910.17;93049;1211;74518;-60
2021/07/30 01:33:06;;;;;;;8.70;5.80;;;;;;;18.74;68.48;99910.41;92990;1212;81440;-59
2021/07/30 01:35:17;;;;;;;7.80;6.30;;;;;;;18.71;68.62;99917.22;92992;1211;65511;-59
2021/07/30 01:37:28;;;;;;;7.10;6.00;;;;;;;18.72;68.65;99915.31;93009;1212;68105;-59
2021/07/30 01:39:36;;;;;;;6.60;5.20;;;;;;;18.70;68.49;99920.22;92995;1211;87882;-60
2021/07/30 01:41:47;;;;;;;8.40;5.30;;;;;;;18.71;68.80;99917.22;92912;1217;75457;-59
2021/07/30 01:43:54;;;;;;;7.30;5.80;;;;;;;18.72;68.41;99915.31;92943;1211;81851;-64
2021/07/30 01:46:02;;;;;;;7.60;5.50;;;;;;;18.76;68.59;99908.27;92949;1211;65883;-63
2021/07/30 01:48:10;;;;;;;9.60;6.10;;;;;;;18.75;68.44;99912.91;92926;1211;68541;-63
2021/07/30 01:50:21;;;;;;;8.40;5.60;;;;;;;18.74;68.08;99913.98;92941;1211;86574;-62
2021/07/30 01:52:28;;;;;;;8.10;5.30;;;;;;;18.75;67.84;99917.55;92930;1211;75595;-62
2021/07/30 01:54:36;;;;;;;8.00;5.60;;;;;;;18.76;67.88;99916.48;92953;1211;80895;-65
2021/07/30 01:56:44;;;;;;;10.30;6.40;;;;;;;18.75;67.88;99923.86;92930;1211;67023;-62
2021/07/30 01:58:51;;;;;;;7.60;5.30;;;;;;;18.72;67.98;99921.63;92958;1211;68968;-59
2021/07/30 02:00:59;;;;;;;6.40;5.10;;;;;;;18.67;67.82;99915.25;92914;1211;85273;-61
2021/07/30 02:03:06;;;;;;;6.60;4.40;;;;;;;18.67;67.95;99917.99;92963;1211;73981;-62
2021/07/30 02:05:14;;;;;;;7.60;5.50;;;;;;;18.66;67.99;99919.06;92932;1217;81550;-60
2021/07/30 02:07:22;;;;;;;6.70;5.50;;;;;;;18.67;67.93;99916.09;92915;1211;66262;-60
2021/07/30 02:09:32;;;;;;;9.90;5.60;;;;;;;18.67;67.88;99913.35;92951;1211;69374;-60
2021/07/30 02:11:42;;;;;;;9.00;4.80;;;;;;;18.67;68.01;99910.62;92937;1211;85760;-60
2021/07/30 02:16:15;;;;;;;7.90;5.60;;;;;;;18.61;67.71;99910.79;92908;1211;80865;-61
2021/07/30 02:18:22;;;;;;;9.70;5.30;;;;;;;18.58;67.56;99917.59;92906;1211;66682;-63
2021/07/30 02:20:30;;;;;;;9.00;5.70;;;;;;;18.54;67.80;99907.42;92944;1211;68789;-59
2021/07/30 02:22:37;;;;;;;6.30;5.10;;;;;;;18.47;67.72;99910.30;92900;1211;86678;-60
2021/07/30 02:24:45;;;;;;;6.00;5.40;;;;;;;18.41;67.76;99922.24;92946;1215;76109;-60
2021/07/30 02:26:53;;;;;;;6.60;5.80;;;;;;;18.34;67.59;99916.14;92868;1211;80246;-60
2021/07/30 02:29:01;;;;;;;7.20;5.50;;;;;;;18.29;67.89;99914.14;92962;1206;65722;-60
2021/07/30 02:31:11;;;;;;;6.60;5.40;;;;;;;18.22;67.90;99912.66;92951;1211;69563;-61
2021/07/30 02:33:19;;;;;;;6.60;5.20;;;;;;;18.14;67.96;99919.39;92941;1211;88040;-60
2021/07/30 02:35:26;;;;;;;6.60;5.00;;;;;;;18.11;68.08;99916.33;92934;1217;73815;-61
2021/07/30 02:37:34;;;;;;;7.90;5.30;;;;;;;18.12;68.22;99924.29;92913;1211;81470;-61
2021/07/30 02:39:42;;;;;;;7.90;5.50;;;;;;;18.16;68.22;99916.39;92927;1211;66989;-60
2021/07/30 02:41:49;;;;;;;6.60;5.20;;;;;;;18.19;68.36;99916.73;92948;1217;68525;-58
2021/07/30 02:43:58;;;;;;;6.70;5.00;;;;;;;18.24;68.47;99916.80;92925;1211;86697;-59
2021/07/30 02:46:05;;;;;;;5.70;5.10;;;;;;;18.28;68.40;99923.44;92939;1211;73751;-60
2021/07/30 02:48:13;;;;;;;6.70;5.60;;;;;;;18.32;68.43;99926.51;92927;1211;81947;-61
2021/07/30 02:50:20;;;;;;;9.60;5.90;;;;;;;18.34;68.54;99923.51;92898;1209;65264;-59
2021/07/30 02:52:28;;;;;;;8.10;5.60;;;;;;;18.33;68.45;99917.20;92916;1211;68046;-58
2021/07/30 02:54:41;;;;;;;6.00;5.00;;;;;;;18.36;68.39;99926.81;92909;1211;86622;-62
2021/07/30 02:56:49;;;;;;;6.90;4.90;;;;;;;18.40;68.59;99919.77;92919;1211;73842;-63
2021/07/30 02:58:57;;;;;;;8.00;5.30;;;;;;;18.44;68.57;99921.74;92926;1216;81382;-62
2021/07/30 03:01:04;;;;;;;6.30;5.50;;;;;;;18.47;68.61;99920.41;92922;1211;65944;-61
2021/07/30 03:03:13;;;;;;;7.60;5.80;;;;;;;18.49;68.34;99931.95;92968;1211;70030;-60
2021/07/30 03:05:23;;;;;;;8.40;6.00;;;;;;;18.49;68.24;99924.58;92882;1218;86811;-60
2021/07/30 03:07:31;;;;;;;10.40;5.90;;;;;;;18.48;68.17;99927.58;92938;1211;74373;-58
2021/07/30 03:09:42;;;;;;;6.80;5.10;;;;;;;18.47;68.16;99923.14;92944;1211;81410;-58
2021/07/30 03:11:49;;;;;;;6.80;5.10;;;;;;;18.45;68.25;99928.05;92923;1216;67923;-59
2021/07/30 03:14:00;;;;;;;8.10;5.20;;;;;;;18.46;68.07;99926.98;92954;1211;68348;-58
2021/07/30 03:16:08;;;;;;;7.70;5.50;;;;;;;18.47;68.12;99925.88;92957;1211;86436;-58
2021/07/30 03:18:18;;;;;;;7.50;5.20;;;;;;;18.49;68.20;99929.22;92939;1211;74341;-60
2021/07/30 03:20:26;;;;;;;7.30;5.50;;;;;;;18.50;68.06;99919.94;92918;1211;81397;-61
2021/07/30 03:22:34;;;;;;;7.70;5.30;;;;;;;18.50;68.07;99928.98;92969;1211;65760;-60
2021/07/30 03:24:44;;;;;;;7.30;5.20;;;;;;;18.52;67.98;99928.72;92937;1216;69433;-59
2021/07/30 03:26:52;;;;;;;6.20;5.00;;;;;;;18.50;68.05;99930.88;92938;1216;86903;-60
2021/07/30 03:29:00;;;;;;;7.60;5.30;;;;;;;18.48;68.10;99935.78;92938;1211;75322;-60
2021/07/30 03:31:07;;;;;;;7.20;5.30;;;;;;;18.42;68.01;99940.33;92932;1211;82456;-62
2021/07/30 03:33:18;;;;;;;8.70;5.60;;;;;;;18.38;67.97;99935.59;92957;1211;66849;-60
2021/07/30 03:35:26;;;;;;;5.70;5.00;;;;;;;18.36;68.08;99932.28;92920;1211;69116;-59
2021/07/30 03:37:33;;;;;;;6.70;5.60;;;;;;;18.34;68.07;99928.98;92933;1211;86860;-59
2021/07/30 03:39:41;;;;;;;6.90;5.10;;;;;;;18.28;68.17;99931.64;92954;1211;76242;-60
2021/07/30 03:41:48;;;;;;;9.40;5.60;;;;;;;18.25;68.16;99934.05;92923;1211;80010;-60
2021/07/30 03:43:56;;;;;;;7.20;5.50;;;;;;;18.26;68.48;99933.81;92955;1211;67661;-57
2021/07/30 03:46:03;;;;;;;7.00;5.40;;;;;;;18.31;68.73;99938.52;92931;1211;69355;-61
2021/07/30 03:48:12;;;;;;;6.70;4.90;;;;;;;18.41;68.78;99937.82;92958;1211;86708;-61
2021/07/30 03:50:20;;;;;;;6.70;5.40;;;;;;;18.50;68.86;99939.92;92921;1211;74697;-58
2021/07/30 03:52:28;;;;;;;6.50;5.40;;;;;;;18.82;69.28;99929.95;92940;1211;81146;-60
2021/07/30 03:54:38;;;;;;;5.80;5.30;;;;;;;19.70;68.69;99930.66;92916;1210;66095;-60
2021/07/30 03:56:45;;;;;;;7.80;5.80;;;;;;;20.87;68.19;99931.25;92932;1211;69755;-59
2021/07/30 03:58:54;;;;;;;5.70;5.00;;;;;;;21.77;66.33;99927.11;92943;1211;88143;-59
2021/07/30 04:01:06;;;;;;;7.80;5.20;;;;;;;21.45;65.27;99932.02;92955;1211;73808;-62
2021/07/30 04:03:14;;;;;;;7.10;5.50;;;;;;;20.99;64.94;99933.75;92937;1211;81702;-62
2021/07/30 04:05:22;;;;;;;8.90;5.80;;;;;;;20.53;64.61;99928.05;92917;1212;65546;-58
2021/07/30 04:07:32;;;;;;;8.00;5.60;;;;;;;20.22;65.16;99939.05;92943;1211;68147;-61
2021/07/30 04:09:40;;;;;;;8.30;5.40;;;;;;;20.01;65.17;99936.17;92937;1211;87732;-59
2021/07/30 04:11:48;;;;;;;9.80;5.90;;;;;;;19.85;65.74;99934.39;92936;1211;75331;-60
2021/07/30 04:13:56;;;;;;;8.30;6.30;;;;;;;19.74;65.78;99951.84;92941;1211;80359;-61
2021/07/30 04:16:06;;;;;;;6.60;5.40;;;;;;;20.67;66.81;99944.87;92947;1211;65224;-61
2021/07/30 04:18:14;;;;;;;6.00;5.40;;;;;;;21.89;65.23;99943.38;92956;1211;69100;-60
2021/07/30 04:20:22;;;;;;;8.90;5.50;;;;;;;21.63;64.12;99939.73;92901;1211;86316;-61
2021/07/30 04:22:29;;;;;;;6.40;5.20;;;;;;;21.25;63.61;99942.95;92922;1218;74665;-63
2021/07/30 04:24:38;;;;;;;7.90;5.50;;;;;;;20.92;63.72;99938.67;92926;1211;81415;-63
2021/07/30 04:26:46;;;;;;;7.20;5.60;;;;;;;20.63;63.95;99930.01;92966;1212;67149;-59
2021/07/30 04:28:56;;;;;;;7.30;5.60;;;;;;;20.52;64.32;99934.63;92929;1211;69596;-59
2021/07/30 04:31:08;;;;;;;8.10;5.40;;;;;;;20.37;64.42;99937.28;92932;1211;86975;-60
2021/07/30 04:33:16;;;;;;;8.60;5.70;;;;;;;20.34;64.45;99937.81;92941;1211;73758;-61
2021/07/30 04:35:24;;;;;;;11.10;6.00;;;;;;;20.39;64.42;99929.61;92905;1218;81563;-60
2021/07/30 04:37:32;;;;;;;7.90;6.10;;;;;;;20.35;64.37;99925.76;92916;1211;66981;-60
2021/07/30 04:39:40;;;;;;;8.10;5.90;;;;;;;20.16;64.26;99923.66;92927;1211;68787;-58
2021/07/30 04:41:48;;;;;;;7.80;6.00;;;;;;;19.92;64.53;99921.27;92926;1211;88056;-60
2021/07/30 04:43:55;;;;;;;7.50;5.10;;;;;;;19.77;64.57;99928.55;92963;1211;74684;-59
2021/07/30 04:46:03;;;;;;;8.00;6.00;;;;;;;19.80;64.82;99930.78;92902;1211;80309;-62
2021/07/30 04:48:11;;;;;;;7.70;5.30;;;;;;;20.69;65.63;99934.44;92961;1211;66013;-63
2021/07/30 04:50:21;;;;;;;9.10;5.70;;;;;;;21.96;64.15;99936.50;92932;1211;68292;-61
2021/07/30 04:52:29;;;;;;;10.20;5.80;;;;;;;23.41;63.06;99930.89;92927;1211;85333;-60
2021/07/30 04:54:37;;;;;;;7.30;5.60;;;;;;;24.79;60.89;99932.20;92941;1212;74584;-63
2021/07/30 04:56:45;;;;;;;6.30;5.40;;;;;;;25.99;59.44;99932.49;92971;1211;80681;-60
2021/07/30 04:58:52;;;;;;;7.70;4.80;;;;;;;27.07;56.84;99933.84;92947;1211;66527;-60
2021/07/30 05:01:05;;;;;;;9.50;5.20;;;;;;;28.00;54.55;99929.51;92941;1206;69173;-61
2021/07/30 05:03:12;;;;;;;6.60;4.90;;;;;;;28.79;52.76;99924.95;92953;1211;86460;-61
2021/07/30 05:05:20;;;;;;;7.00;5.70;;;;;;;29.29;51.05;99922.67;92908;1211;75589;-60
2021/07/30 05:07:28;;;;;;;8.40;5.20;;;;;;;29.92;49.44;99919.30;92922;1211;81941;-59
2021/07/30 05:09:36;;;;;;;5.40;4.90;;;;;;;30.49;47.53;99916.28;92911;1211;67239;-60
2021/07/30 05:11:44;;;;;;;5.90;4.70;;;;;;;30.82;46.53;99923.67;92964;1211;70646;-58
2021/07/30 05:13:51;;;;;;;5.50;4.70;;;;;;;30.06;46.10;99921.90;92942;1211;85305;-61
2021/07/30 05:15:59;;;;;;;5.80;4.80;;;;;;;30.35;45.90;99928.39;92932;1211;73988;-58
2021/07/30 05:18:07;;;;;;;7.00;4.60;;;;;;;30.56;45.11;99908.20;92927;1211;79962;-60
2021/07/30 05:20:16;;;;;;;5.90;4.50;;;;;;;30.80;44.57;99919.59;92919;1216;66758;-60
2021/07/30 05:22:26;;;;;;;5.20;4.70;;;;;;;29.54;44.42;99912.72;92980;1211;69529;-60
2021/07/30 05:24:39;;;;;;;6.90;4.60;;;;;;;28.92;45.53;99917.65;92942;1211;87015;-58
2021/07/30 05:26:46;;;;;;;6.90;4.40;;;;;;;29.55;45.25;99919.94;92936;1211;74057;-62
2021/07/30 05:28:54;;;;;;;6.50;5.00;;;;;;;29.31;44.43;99914.81;92951;1204;81973;-61
2021/07/30 05:31:02;;;;;;;6.00;4.70;;;;;;;28.47;44.66;99914.97;92894;1211;65649;-61
2021/07/30 05:33:10;;;;;;;6.20;4.80;;;;;;;28.68;45.44;99923.59;92959;1211;69531;-61
2021/07/30 05:35:18;;;;;;;5.20;4.60;;;;;;;29.19;45.25;99912.66;92918;1216;86234;-61
2021/07/30 05:37:26;;;;;;;7.00;4.90;;;;;;;30.11;44.73;99918.94;92987;1216;75178;-61
2021/07/30 05:39:33;;;;;;;6.90;5.00;;;;;;;30.28;43.44;99914.16;92933;1211;80114;-63
2021/07/30 05:41:41;;;;;;;6.00;5.40;;;;;;;30.55;42.83;99915.75;92923;1211;67289;-62
2021/07/30 05:43:50;;;;;;;6.10;5.20;;;;;;;30.37;42.63;99919.75;92938;1212;69038;-61
2021/07/30 05:45:57;;;;;;;5.60;5.00;;;;;;;30.52;42.41;99919.20;92905;1211;87411;-63
2021/07/30 05:48:07;;;;;;;6.80;4.80;;;;;;;30.84;42.50;99915.81;92946;1208;75278;-61
2021/07/30 05:50:15;;;;;;;7.20;5.00;;;;;;;31.04;42.35;99930.19;92931;1211;81492;-63
2021/07/30 05:52:22;;;;;;;7.30;4.50;;;;;;;31.10;41.96;99923.23;92934;1211;65912;-63
2021/07/30 05:54:31;;;;;;;5.90;4.30;;;;;;;31.56;41.41;99927.91;92964;1211;68426;-61
2021/07/30 05:56:39;;;;;;;6.80;4.80;;;;;;;31.20;40.74;99934.03;92925;1211;87598;-57
2021/07/30 05:58:47;;;;;;;8.10;4.60;;;;;;;30.37;41.41;99925.33;92928;1211;74989;-58
2021/07/30 06:00:55;;;;;;;5.80;4.00;;;;;;;31.17;41.46;99927.16;92892;1218;81377;-58
2021/07/30 06:03:02;;;;;;;5.90;3.80;;;;;;;31.37;40.62;99926.35;92959;1211;66121;-57
2021/07/30 06:05:12;;;;;;;5.10;4.60;;;;;;;31.66;39.89;99933.91;92946;1211;68173;-59
2021/07/30 06:07:19;;;;;;;6.10;4.60;;;;;;;31.02;40.03;99929.69;92955;1211;87221;-56
2021/07/30 06:09:30;;;;;;;4.90;4.30;;;;;;;30.61;40.83;99925.58;92951;1211;74088;-58
2021/07/30 06:11:37;;;;;;;6.60;4.70;;;;;;;29.60;40.99;99934.52;92934;1211;81146;-57
2021/07/30 06:13:51;;;;;;;7.80;4.50;;;;;;;30.19;41.96;99934.86;92939;1211;66538;-58
2021/07/30 06:16:01;;;;;;;6.30;4.40;;;;;;;31.40;41.12;99922.06;92917;1211;69404;-63
2021/07/30 06:18:09;;;;;;;5.60;4.10;;;;;;;32.53;40.35;99929.14;92936;1211;87291;-63
2021/07/30 06:20:17;;;;;;;6.50;4.60;;;;;;;33.43;37.84;99921.39;92948;1210;74980;-64
2021/07/30 06:22:25;;;;;;;6.00;4.30;;;;;;;33.69;37.42;99929.42;92931;1211;82016;-63
2021/07/30 06:24:39;;;;;;;5.60;4.20;;;;;;;33.45;37.67;99923.85;92924;1211;67944;-63
2021/07/30 06:26:47;;;;;;;8.70;4.40;;;;;;;34.39;36.89;99927.88;92974;1211;70496;-64
2021/07/30 06:28:55;;;;;;;5.70;4.00;;;;;;;33.23;36.37;99931.59;92950;1211;85709;-67
2021/07/30 06:31:02;;;;;;;6.90;4.60;;;;;;;31.72;37.63;99940.11;92929;1211;73795;-58
2021/07/30 06:33:13;;;;;;;7.00;4.90;;;;;;;30.62;38.90;99937.55;92917;1211;81452;-58
2021/07/30 06:35:21;;;;;;;5.10;3.70;;;;;;;29.77;39.75;99937.31;92907;1211;67150;-59
2021/07/30 06:37:33;;;;;;;5.10;4.60;;;;;;;29.22;40.30;99939.05;92942;1211;68118;-57
2021/07/30 06:39:42;;;;;;;5.20;4.20;;;;;;;29.00;40.63;99937.16;92903;1211;87286;-61
2021/07/30 06:41:50;;;;;;;4.90;4.30;;;;;;;28.84;41.64;99935.13;92905;1212;75637;-58
2021/07/30 06:43:58;;;;;;;5.90;4.30;;;;;;;28.50;42.28;99931.02;92940;1211;80157;-57
2021/07/30 06:46:05;;;;;;;7.70;4.50;;;;;;;28.55;42.97;99930.05;92935;1211;65687;-63
2021/07/30 06:48:13;;;;;;;5.50;4.40;;;;;;;28.71;43.01;99930.47;92942;1211;68799;-63
2021/07/30 06:50:21;;;;;;;5.80;4.20;;;;;;;28.81;42.81;99927.42;92937;1211;87249;-58
2021/07/30 06:52:28;;;;;;;7.00;4.60;;;;;;;28.74;42.73;99927.88;92948;1217;75052;-57
2021/07/30 06:54:37;;;;;;;6.10;4.50;;;;;;;28.84;43.17;99935.13;92912;1211;81308;-57
2021/07/30 06:56:47;;;;;;;4.70;4.20;;;;;;;29.15;42.61;99916.39;92935;1217;65409;-58
2021/07/30 06:58:55;;;;;;;6.70;4.40;;;;;;;29.33;42.47;99923.68;92972;1211;70242;-59
2021/07/30 07:01:07;;;;;;;5.50;3.70;;;;;;;29.39;42.30;99919.60;92916;1211;87298;-59
2021/07/30 07:03:18;;;;;;;6.60;4.00;;;;;;;29.12;42.20;99928.16;92953;1211;74864;-58
2021/07/30 07:05:25;;;;;;;5.90;4.10;;;;;;;29.25;41.74;99927.27;92945;1218;82130;-63
2021/07/30 07:07:36;;;;;;;6.80;4.50;;;;;;;30.19;41.19;99920.92;92943;1211;67595;-64
2021/07/30 07:09:44;;;;;;;6.70;4.10;;;;;;;31.34;40.15;99924.23;92935;1211;68198;-63
2021/07/30 07:11:51;;;;;;;5.00;3.60;;;;;;;31.93;38.48;99929.73;92973;1218;85539;-64
2021/07/30 07:13:59;;;;;;;7.20;4.00;;;;;;;32.05;38.48;99927.03;92948;1211;75560;-63
2021/07/30 07:16:10;;;;;;;6.40;4.20;;;;;;;32.13;38.34;99920.53;92911;1211;81711;-61
2021/07/30 07:18:18;;;;;;;8.00;4.60;;;;;;;31.50;37.86;99925.33;92951;1211;66622;-59
2021/07/30 07:20:25;;;;;;;5.70;3.90;;;;;;;32.06;38.28;99923.88;92930;1211;69711;-63
2021/07/30 07:22:33;;;;;;;6.50;4.20;;;;;;;32.96;36.71;99915.48;92921;1211;86418;-65
2021/07/30 07:24:42;;;;;;;6.80;3.90;;;;;;;32.74;36.38;99923.50;92936;1211;74008;-62
2021/07/30 07:26:53;;;;;;;7.60;4.60;;;;;;;32.19;37.30;99916.37;92910;1211;81587;-58
2021/07/30 07:29:00;;;;;;;6.70;4.00;;;;;;;31.47;37.58;99922.39;92925;1211;67906;-59
2021/07/30 07:31:08;;;;;;;5.60;4.50;;;;;;;31.14;38.30;99915.84;92968;1210;68507;-64
2021/07/30 07:33:16;;;;;;;5.20;4.20;;;;;;;31.48;38.06;99918.45;92919;1218;86496;-62
2021/07/30 07:35:26;;;;;;;5.60;4.10;;;;;;;31.74;37.49;99916.25;92937;1211;74086;-57
2021/07/30 07:37:34;;;;;;;4.70;4.20;;;;;;;31.94;37.26;99912.64;92923;1209;80955;-58
2021/07/30 07:39:42;;;;;;;8.30;4.10;;;;;;;31.95;37.63;99917.05;92894;1211;65316;-60
2021/07/30 07:41:49;;;;;;;5.80;3.80;;;;;;;31.55;37.58;99910.33;92945;1211;68378;-57
2021/07/30 07:44:00;;;;;;;4.60;4.00;;;;;;;31.27;38.15;99911.97;92922;1211;87222;-59
2021/07/30 07:46:08;;;;;;;5.90;4.30;;;;;;;31.47;38.47;99912.05;92909;1211;73623;-59
2021/07/30 07:48:15;;;;;;;6.20;4.60;;;;;;;31.82;38.75;99915.36;92945;1211;81658;-57
2021/07/30 07:50:23;;;;;;;6.20;4.00;;;;;;;33.38;36.60;99909.61;92933;1217;66574;-64
2021/07/30 07:52:37;;;;;;;6.20;4.20;;;;;;;34.37;35.82;99907.77;92956;1211;69027;-64
2021/07/30 07:54:45;;;;;;;5.40;3.90;;;;;;;34.16;35.05;99910.82;92955;1211;87346;-59
2021/07/30 07:56:57;;;;;;;6.00;3.70;;;;;;;35.08;34.17;99904.05;92956;1211;74824;-60
2021/07/30 07:59:07;;;;;;;5.80;3.80;;;;;;;34.76;33.73;99909.65;92963;1211;81350;-62
2021/07/30 08:01:18;;;;;;;4.50;3.80;;;;;;;34.01;33.89;99905.94;92913;1211;66870;-65
2021/07/30 08:03:30;;;;;;;7.30;4.00;;;;;;;33.95;34.41;99901.78;92954;1206;70042;-59
2021/07/30 08:05:42;;;;;;;4.50;3.80;;;;;;;34.48;33.93;99914.48;92875;1211;87434;-69
2021/07/30 08:07:49;;;;;;;4.80;3.70;;;;;;;35.04;33.92;99903.92;92905;1210;74922;-68
2021/07/30 08:09:57;;;;;;;5.50;3.90;;;;;;;35.13;32.73;99907.39;92930;1211;81640;-62
2021/07/30 08:12:06;;;;;;;6.90;3.60;;;;;;;34.89;33.23;99902.75;92889;1216;67151;-61
2021/07/30 08:14:17;;;;;;;5.30;3.50;;;;;;;35.31;33.09;99907.79;92938;1211;68228;-61
2021/07/30 08:16:28;;;;;;;5.70;3.50;;;;;;;35.70;32.29;99911.50;92918;1211;85705;-67
2021/07/30 08:18:36;;;;;;;4.50;3.70;;;;;;;34.58;31.80;99910.38;92988;1211;75375;-68
2021/07/30 08:20:44;;;;;;;7.80;3.70;;;;;;;34.87;32.91;99910.73;92933;1211;80320;-69
2021/07/30 08:22:52;;;;;;;5.20;3.60;;;;;;;35.37;32.07;99909.14;92914;1211;66485;-60
2021/07/30 08:25:02;;;;;;;4.60;3.50;;;;;;;36.14;31.82;99909.23;92903;1211;69390;-65
2021/07/30 08:27:11;;;;;;;4.50;3.40;;;;;;;36.28;31.51;99901.89;92913;1211;85956;-66
2021/07/30 08:29:20;;;;;;;7.90;3.60;;;;;;;36.04;30.93;99911.45;92936;1211;75813;-65
2021/07/30 08:31:28;;;;;;;4.00;3.30;;;;;;;36.08;31.17;99909.53;92892;1211;82632;-56
2021/07/30 08:33:38;;;;;;;4.10;3.10;;;;;;;35.85;30.45;99907.83;92869;1211;65980;-56
2021/07/30 08:35:46;;;;;;;5.00;3.70;;;;;;;36.26;30.28;99904.23;92946;1211;67695;-65
2021/07/30 08:37:53;;;;;;;5.10;3.30;;;;;;;36.44;31.33;99899.77;92941;1211;87634;-65
2021/07/30 08:40:01;;;;;;;3.90;3.40;;;;;;;36.35;30.50;99904.00;92923;1211;76047;-65
2021/07/30 08:42:09;;;;;;;4.00;2.90;;;;;;;36.35;30.12;99910.45;92881;1211;81857;-67
2021/07/30 08:44:21;;;;;;;4.00;2.80;;;;;;;36.63;28.67;99905.38;92920;1217;65869;-62
2021/07/30 08:46:31;;;;;;;3.60;2.70;;;;;;;36.43;28.87;99911.39;92914;1211;69399;-64
2021/07/30 08:48:39;;;;;;;4.50;3.10;;;;;;;36.41;29.46;99903.33;92902;1211;87234;-62
2021/07/30 08:50:51;;;;;;;5.60;3.00;;;;;;;36.37;28.94;99904.47;92906;1211;74910;-63
2021/07/30 08:53:07;;;;;;;5.70;3.20;;;;;;;36.58;28.83;99905.69;92910;1206;80155;-63
2021/07/30 08:55:17;;;;;;;3.40;3.10;;;;;;;36.63;28.64;99908.19;92909;1211;66945;-63
2021/07/30 08:57:25;;;;;;;5.70;3.00;;;;;;;36.72;28.68;99907.13;92942;1211;68891;-62
2021/07/30 08:59:32;;;;;;;7.40;3.10;;;;;;;36.55;28.67;99900.81;92907;1211;87017;-64
2021/07/30 09:01:41;;;;;;;3.20;2.70;;;;;;;37.06;28.61;99892.02;92939;1211;76483;-60
2021/07/30 09:03:49;;;;;;;4.90;3.10;;;;;;;37.33;27.90;99893.66;92930;1216;80915;-59
2021/07/30 09:05:57;;;;;;;4.20;3.10;;;;;;;37.41;28.02;99892.56;92921;1217;65932;-60
2021/07/30 09:08:07;;;;;;;4.90;2.70;;;;;;;37.34;27.17;99889.63;92944;1211;68629;-60
2021/07/30 09:10:34;;;;;;;4.10;2.70;;;;;;;37.37;26.82;99890.87;92954;1211;86479;-63
2021/07/30 09:12:42;;;;;;;5.00;2.70;;;;;;;37.32;27.31;99894.02;92890;1211;75422;-61
2021/07/30 09:14:49;;;;;;;4.10;2.40;;;;;;;37.20;26.57;99886.59;92882;1211;81659;-63
2021/07/30 09:16:58;;;;;;;4.00;2.60;;;;;;;37.16;26.76;99880.12;92909;1210;67218;-62
2021/07/30 09:19:10;;;;;;;3.70;2.80;;;;;;;37.28;27.41;99879.09;92958;1211;68866;-61
2021/07/30 09:21:30;;;;;;;3.20;2.80;;;;;;;36.92;26.98;99886.16;92867;1211;86382;-61
2021/07/30 09:23:45;;;;;;;3.40;2.70;;;;;;;36.89;27.69;99884.09;92911;1211;74249;-58
2021/07/30 09:25:55;;;;;;;4.30;2.60;;;;;;;36.52;26.86;99881.03;92923;1211;80848;-59
2021/07/30 09:28:08;;;;;;;3.60;2.80;;;;;;;36.12;27.98;99875.86;92924;1211;67112;-59
2021/07/30 09:30:18;;;;;;;6.10;2.70;;;;;;;35.79;28.22;99875.56;92949;1211;68022;-62
2021/07/30 09:32:31;;;;;;;4.40;2.90;;;;;;;35.62;27.81;99884.43;92962;1211;87143;-66
2021/07/30 09:34:48;;;;;;;5.00;3.20;;;;;;;35.08;28.95;99882.38;92939;1211;74032;-66
2021/07/30 09:36:59;;;;;;;4.50;3.40;;;;;;;34.85;29.30;99872.97;92882;1211;82020;-63
2021/07/30 09:39:07;;;;;;;5.80;2.70;;;;;;;34.61;29.59;99875.98;92877;1218;68138;-62
2021/07/30 09:41:18;;;;;;;3.70;3.10;;;;;;;34.35;30.65;99871.67;92950;1218;69556;-61
2021/07/30 09:43:29;;;;;;;4.50;2.90;;;;;;;34.28;30.12;99873.48;92903;1211;86440;-62
2021/07/30 09:45:38;;;;;;;5.00;3.30;;;;;;;34.11;30.46;99877.44;92889;1218;74388;-59
2021/07/30 09:47:52;;;;;;;4.40;2.60;;;;;;;33.87;30.43;99876.71;92912;1210;80404;-59
2021/07/30 09:50:05;;;;;;;4.60;2.50;;;;;;;33.63;31.54;99872.81;92926;1211;67927;-59
2021/07/30 09:52:18;;;;;;;5.50;3.20;;;;;;;33.52;30.89;99870.83;92916;1211;68973;-59
2021/07/30 09:54:26;;;;;;;4.00;3.60;;;;;;;33.36;31.23;99872.75;92898;1216;87116;-59
2021/07/30 09:56:34;;;;;;;7.10;3.00;;;;;;;33.36;31.70;99862.36;92918;1217;75809;-58
2021/07/30 09:58:45;;;;;;;8.40;3.10;;;;;;;33.25;30.85;99864.02;92927;1211;81255;-60
2021/07/30 10:00:53;;;;;;;5.00;2.80;;;;;;;33.05;31.05;99863.00;92950;1204;66124;-59
2021/07/30 10:03:08;;;;;;;3.70;2.50;;;;;;;32.61;30.80;99858.31;92930;1211;69702;-58
2021/07/30 10:05:20;;;;;;;3.80;3.10;;;;;;;32.18;31.86;99864.41;92943;1210;87130;-59
2021/07/30 10:07:30;;;;;;;4.50;2.80;;;;;;;32.05;31.61;99862.75;92893;1211;74722;-65
2021/07/30 10:09:39;;;;;;;7.50;3.00;;;;;;;31.79;33.20;99862.14;92927;1211;81092;-60
2021/07/30 10:11:48;;;;;;;5.80;2.60;;;;;;;31.88;33.26;99860.09;92931;1211;66520;-66